METAR Data
IDs: Format: Raw Decoded Include TAF

Data at: 2100 UTC 18 Apr 2021

KHWD 182054Z 29009KT 10SM CLR 26/05 A3009 RMK AO2 SLP199 T02560050 58011
No TAF found for KHWD

KRDD 182053Z 35008G14KT 300V040 10SM CLR 31/M03 A3005 RMK AO2 SLP172 T03111033 58025

KRDD 181724Z 1818/1918 31005KT P6SM SKC

KRTS 182055Z AUTO VRB03G11KT 10SM CLR 18/M17 A3026 RMK AO2
No TAF found for KRTS